Time;durP1;ratioP1;P1;durP2;ratioP2;P2;SDS_P1;SDS_P2;PMS_P1;PMS_P2;Temp;Humidity;BMP_temperature;BMP_pressure;BME280_temperature;BME280_humidity;BME280_pressure;Samples;Min_cycle;Max_cycle;Signal;HPM_P1;HPM_P2
2021/06/11 00:00:57;;;;;;;45.20;21.97;;;;;;;10.81;100.00;94173.50;5075050;28;20673;-76
2021/06/11 00:03:23;;;;;;;46.63;21.73;;;;;;;10.87;100.00;94174.53;5074857;28;20203;-76
2021/06/11 00:05:49;;;;;;;44.67;20.87;;;;;;;10.85;100.00;94173.94;5074618;28;20608;-76
2021/06/11 00:08:15;;;;;;;44.73;20.57;;;;;;;10.83;100.00;94189.00;5074713;28;20233;-75
2021/06/11 00:10:41;;;;;;;44.97;19.47;;;;;;;10.82;100.00;94184.75;5074472;28;20206;-76
2021/06/11 00:13:08;;;;;;;44.77;19.40;;;;;;;10.76;100.00;94182.91;5074649;28;20199;-76
2021/06/11 00:15:34;;;;;;;37.23;18.40;;;;;;;10.67;100.00;94185.66;5074438;28;20653;-75
2021/06/11 00:18:01;;;;;;;37.57;18.33;;;;;;;10.57;100.00;94179.97;5074436;28;20203;-75
2021/06/11 00:20:27;;;;;;;35.63;16.20;;;;;;;10.44;100.00;94185.09;5074524;28;20247;-78
2021/06/11 00:22:53;;;;;;;53.63;21.17;;;;;;;10.62;100.00;94189.84;5074380;28;20452;-76
2021/06/11 00:25:22;;;;;;;56.27;23.13;;;;;;;10.87;100.00;94185.00;5074046;28;20230;-76
2021/06/11 00:27:49;;;;;;;53.07;21.23;;;;;;;10.69;100.00;94183.69;5074484;28;20557;-76
2021/06/11 00:30:16;;;;;;;41.97;18.63;;;;;;;10.57;100.00;94187.81;5074350;28;20201;-77
2021/06/11 00:32:43;;;;;;;45.10;19.43;;;;;;;10.60;100.00;94189.25;5074162;28;20218;-77
2021/06/11 00:35:12;;;;;;;41.73;19.20;;;;;;;10.57;100.00;94184.41;5074188;28;20203;-77
2021/06/11 00:37:38;;;;;;;45.27;19.73;;;;;;;10.51;100.00;94184.16;5073945;28;20259;-77
2021/06/11 00:40:06;;;;;;;49.03;21.43;;;;;;;10.56;100.00;94183.59;5074228;28;20661;-77
2021/06/11 00:42:33;;;;;;;51.63;19.37;;;;;;;10.51;100.00;94178.16;5074066;28;20277;-76
2021/06/11 00:44:59;;;;;;;43.37;18.73;;;;;;;10.35;100.00;94180.00;5073906;28;20234;-76
2021/06/11 00:47:25;;;;;;;35.00;16.53;;;;;;;10.23;100.00;94178.88;5073849;28;20199;-76
2021/06/11 00:49:51;;;;;;;40.43;17.77;;;;;;;10.17;100.00;94184.84;5074199;28;20677;-77
2021/06/11 00:52:19;;;;;;;43.37;20.23;;;;;;;10.35;100.00;94181.81;5073900;28;20653;-78
2021/06/11 00:54:46;;;;;;;51.23;21.70;;;;;;;10.43;100.00;94180.88;5073888;28;20210;-77
2021/06/11 00:57:12;;;;;;;57.53;23.07;;;;;;;10.48;100.00;94181.13;5073903;28;20203;-75
2021/06/11 00:59:40;;;;;;;60.07;23.77;;;;;;;10.55;100.00;94184.59;5073198;28;20199;-78
2021/06/11 01:02:06;;;;;;;58.40;25.43;;;;;;;10.66;100.00;94183.28;5073704;28;20665;-79
2021/06/11 01:04:32;;;;;;;56.47;23.47;;;;;;;10.60;100.00;94179.59;5073741;28;20199;-78
2021/06/11 01:06:58;;;;;;;53.63;22.97;;;;;;;10.54;100.00;94182.97;5075487;28;20241;-76
2021/06/11 01:09:26;;;;;;;47.73;21.77;;;;;;;10.48;100.00;94175.91;5073354;28;20226;-77
2021/06/11 01:11:52;;;;;;;43.87;20.77;;;;;;;10.50;100.00;94179.13;5073524;28;20225;-76
2021/06/11 01:14:18;;;;;;;53.53;24.50;;;;;;;10.63;100.00;94187.06;5073349;28;20202;-78
2021/06/11 01:16:44;;;;;;;55.40;23.47;;;;;;;10.51;100.00;94181.56;5073337;28;20206;-75
2021/06/11 01:19:12;;;;;;;59.83;24.53;;;;;;;10.55;100.00;94182.78;5073231;28;20203;-76
2021/06/11 01:21:46;;;;;;;54.33;23.17;;;;;;;10.53;100.00;94182.16;5073506;28;20214;-77
2021/06/11 01:24:15;;;;;;;63.23;25.00;;;;;;;10.72;100.00;94188.53;5073066;28;20701;-77
2021/06/11 01:26:47;;;;;;;66.73;24.93;;;;;;;10.78;100.00;94186.16;5073231;28;20206;-78
2021/06/11 01:29:16;;;;;;;55.88;27.27;;;;;;;10.63;100.00;94179.22;5072154;28;20461;-76
2021/06/11 01:31:49;;;;;;;55.03;21.33;;;;;;;10.52;100.00;94184.97;5073005;28;20209;-77
2021/06/11 01:34:19;;;;;;;44.23;20.97;;;;;;;10.51;100.00;94181.56;5073073;28;20202;-77
2021/06/11 01:36:48;;;;;;;41.70;20.03;;;;;;;10.32;100.00;94182.19;5072927;28;20633;-77
2021/06/11 01:39:17;;;;;;;37.77;17.70;;;;;;;10.18;100.00;94189.09;5072996;28;20212;-77
2021/06/11 01:41:46;;;;;;;46.87;19.70;;;;;;;10.19;100.00;94188.06;5072890;28;20203;-76
2021/06/11 01:44:14;;;;;;;45.73;20.33;;;;;;;10.23;100.00;94178.88;5072860;28;20205;-77
2021/06/11 01:46:42;;;;;;;52.97;20.10;;;;;;;10.16;100.00;94183.25;5072916;28;20207;-76
2021/06/11 01:49:11;;;;;;;40.50;19.17;;;;;;;10.08;100.00;94186.78;5072840;28;20322;-77
2021/06/11 01:51:38;;;;;;;49.63;19.33;;;;;;;10.08;100.00;94188.59;5072896;28;20211;-77
2021/06/11 01:54:08;;;;;;;53.77;21.90;;;;;;;10.23;100.00;94186.72;5073044;28;20198;-76
2021/06/11 01:56:35;;;;;;;56.73;23.37;;;;;;;10.30;100.00;94174.53;5073035;28;20211;-76
2021/06/11 01:59:03;;;;;;;62.13;23.70;;;;;;;10.36;100.00;94184.25;5072808;28;20203;-77
2021/06/11 02:01:32;;;;;;;57.77;23.13;;;;;;;10.32;100.00;94175.16;5073140;28;20213;-76
2021/06/11 02:03:59;;;;;;;53.17;20.67;;;;;;;10.17;100.00;94188.28;5072672;28;20202;-76
2021/06/11 02:06:25;;;;;;;53.47;21.00;;;;;;;10.23;100.00;94184.09;5072635;28;20195;-76
2021/06/11 02:08:54;;;;;;;50.80;21.17;;;;;;;10.17;100.00;94185.69;5072535;28;20276;-75
2021/06/11 02:11:21;;;;;;;49.45;22.05;;;;;;;10.03;100.00;94173.50;5074104;28;20438;-77
2021/06/11 02:13:50;;;;;;;42.10;19.30;;;;;;;9.97;100.00;94180.25;5077312;28;20202;-78
2021/06/11 02:16:19;;;;;;;49.90;20.53;;;;;;;9.98;100.00;94181.09;5076735;28;20256;-77
2021/06/11 02:18:46;;;;;;;43.40;18.53;;;;;;;9.92;100.00;94177.41;5076838;28;20340;-76
2021/06/11 02:21:14;;;;;;;41.67;17.77;;;;;;;9.81;100.00;94175.31;5076654;28;20293;-76
2021/06/11 02:23:40;;;;;;;46.13;19.60;;;;;;;9.94;100.00;94174.59;5076594;28;20230;-77
2021/06/11 02:26:10;;;;;;;48.23;19.87;;;;;;;9.89;100.00;94169.97;5076351;28;20222;-77
2021/06/11 02:28:38;;;;;;;66.67;21.73;;;;;;;10.06;100.00;94167.91;5076618;28;20255;-76
2021/06/11 02:31:04;;;;;;;65.17;23.07;;;;;;;10.20;100.00;94166.22;5076600;28;20293;-76
2021/06/11 02:33:32;;;;;;;51.93;20.27;;;;;;;10.08;100.00;94165.91;5076596;28;20206;-76
2021/06/11 02:35:58;;;;;;;43.27;17.63;;;;;;;9.90;100.00;94174.19;5076460;28;20195;-77
2021/06/11 02:38:24;;;;;;;48.87;19.37;;;;;;;9.89;100.00;94167.38;5076426;28;20199;-78
2021/06/11 02:40:52;;;;;;;51.40;20.53;;;;;;;9.94;100.00;94166.78;5076630;28;20341;-76
2021/06/11 02:43:21;;;;;;;62.93;22.23;;;;;;;9.95;100.00;94164.00;5076329;28;20406;-76
2021/06/11 02:45:57;;;;;;;48.13;20.47;;;;;;;10.02;100.00;94166.66;5076197;28;20285;-76
2021/06/11 02:48:28;;;;;;;62.77;24.17;;;;;;;10.18;100.00;94160.38;5076122;28;20421;-76
2021/06/11 02:51:02;;;;;;;61.07;20.83;;;;;;;10.05;100.00;94170.72;5076094;28;20202;-77
2021/06/11 02:53:30;;;;;;;54.33;21.13;;;;;;;9.96;100.00;94167.44;5076253;28;20206;-77
2021/06/11 02:56:00;;;;;;;53.90;21.20;;;;;;;10.07;100.00;94171.31;5076069;28;20194;-77
2021/06/11 02:58:32;;;;;;;57.20;22.13;;;;;;;10.13;100.00;94173.19;5078412;28;20195;-77
2021/06/11 03:00:59;;;;;;;63.83;24.00;;;;;;;10.19;100.00;94175.03;5075968;28;20195;-77
2021/06/11 03:03:28;;;;;;;63.17;24.23;;;;;;;10.22;100.00;94166.81;5075754;28;20199;-77
2021/06/11 03:06:00;;;;;;;63.23;22.90;;;;;;;10.10;100.00;94163.91;5075971;28;20228;-77
2021/06/11 03:08:30;;;;;;;70.53;23.30;;;;;;;10.11;100.00;94175.19;5075629;28;20727;-76
2021/06/11 03:10:59;;;;;;;66.83;23.37;;;;;;;10.10;100.00;94165.72;5075593;28;20557;-77
2021/06/11 03:13:27;;;;;;;69.67;23.77;;;;;;;10.13;100.00;94167.97;5075553;28;20658;-76
2021/06/11 03:15:54;;;;;;;59.77;22.60;;;;;;;10.08;100.00;94165.91;5075600;28;20207;-76
2021/06/11 03:18:29;;;;;;;63.73;23.37;;;;;;;10.14;100.00;94165.19;5075470;28;20203;-78
2021/06/11 03:20:59;;;;;;;60.40;21.67;;;;;;;10.06;100.00;94165.31;5075608;28;20249;-76
2021/06/11 03:23:29;;;;;;;57.17;20.60;;;;;;;10.02;100.00;94166.66;5075193;28;20203;-76
2021/06/11 03:26:00;;;;;;;56.47;20.20;;;;;;;9.91;100.00;94175.81;5075670;28;20229;-78
2021/06/11 03:28:34;;;;;;;55.73;20.33;;;;;;;9.81;100.00;94165.69;5075199;28;20229;-77
2021/06/11 03:31:02;;;;;;;48.53;18.37;;;;;;;9.80;100.00;94168.47;5075360;28;20672;-78
2021/06/11 03:33:32;;;;;;;52.93;18.47;;;;;;;9.88;100.00;94170.94;5075359;28;20199;-76
2021/06/11 03:36:16;;;;;;;68.67;22.47;;;;;;;10.06;100.00;94164.47;5075529;28;20202;-76
2021/06/11 03:38:45;;;;;;;65.47;27.27;;;;;;;10.01;100.00;94162.44;5074326;28;20522;-75
2021/06/11 03:41:12;;;;;;;64.47;21.83;;;;;;;10.05;100.00;94165.50;5075309;28;20199;-78
2021/06/11 03:43:39;;;;;;;62.30;21.67;;;;;;;10.12;100.00;94166.34;5075210;28;20318;-77
2021/06/11 03:46:07;;;;;;;66.87;22.10;;;;;;;10.25;100.00;94163.06;5075153;28;20195;-77
2021/06/11 03:48:34;;;;;;;65.20;21.37;;;;;;;10.22;100.00;94161.59;5074879;28;20253;-76
2021/06/11 03:51:02;;;;;;;60.00;21.23;;;;;;;10.17;100.00;94161.38;5074844;28;20207;-77
2021/06/11 03:53:30;;;;;;;67.23;22.33;;;;;;;10.24;100.00;94162.25;5074839;28;20199;-77
2021/06/11 03:56:00;;;;;;;69.97;23.13;;;;;;;10.31;100.00;94162.31;5075146;28;20205;-77
2021/06/11 03:58:32;;;;;;;61.73;21.37;;;;;;;10.31;100.00;94165.72;5075013;28;20291;-77
2021/06/11 04:01:01;;;;;;;74.73;22.43;;;;;;;10.38;100.00;94162.38;5074883;28;20213;-77
2021/06/11 04:03:27;;;;;;;67.10;21.70;;;;;;;10.36;100.00;94157.34;5074603;28;20592;-76
2021/06/11 04:06:02;;;;;;;60.57;20.70;;;;;;;10.36;100.00;94163.38;5074724;28;20213;-77
2021/06/11 04:08:34;;;;;;;56.30;21.03;;;;;;;10.40;100.00;94158.56;5074987;28;20257;-76
2021/06/11 04:11:03;;;;;;;58.40;21.10;;;;;;;10.43;100.00;94165.22;5074638;28;20657;-76
2021/06/11 04:13:41;;;;;;;51.30;18.97;;;;;;;10.39;100.00;94166.59;5074561;28;20596;-77
2021/06/11 04:16:11;;;;;;;43.27;17.87;;;;;;;10.35;100.00;94172.19;5074551;28;20205;-77
2021/06/11 04:18:41;;;;;;;51.87;18.77;;;;;;;10.37;100.00;94166.78;5074341;28;20194;-77
2021/06/11 04:21:11;;;;;;;60.73;20.30;;;;;;;10.50;100.00;94173.91;5074556;28;20194;-77
2021/06/11 04:23:41;;;;;;;62.33;21.70;;;;;;;10.64;100.00;94180.84;5074285;28;20199;-77
2021/06/11 04:26:08;;;;;;;59.77;21.47;;;;;;;10.66;100.00;94176.22;5074364;28;20207;-76
2021/06/11 04:28:35;;;;;;;64.50;21.07;;;;;;;10.78;100.00;94176.50;5074079;28;20218;-76
2021/06/11 04:31:02;;;;;;;60.07;21.00;;;;;;;10.76;100.00;94175.91;5074344;28;20205;-76
2021/06/11 04:33:30;;;;;;;51.10;19.70;;;;;;;10.82;100.00;94180.34;5073385;28;20557;-77
2021/06/11 04:35:57;;;;;;;47.83;19.93;;;;;;;10.87;100.00;94179.75;5074279;28;20195;-77
2021/06/11 04:38:23;;;;;;;58.37;20.97;;;;;;;10.95;100.00;94182.22;5073949;28;20490;-75
2021/06/11 04:40:51;;;;;;;51.07;19.77;;;;;;;10.99;100.00;94180.03;5074001;28;20236;-79
2021/06/11 04:43:22;;;;;;;46.17;18.13;;;;;;;10.96;100.00;94178.63;5073928;28;20299;-77
2021/06/11 04:45:48;;;;;;;41.10;15.13;;;;;;;11.04;100.00;94173.25;5073818;28;20198;-77
2021/06/11 04:48:14;;;;;;;41.30;16.00;;;;;;;11.08;100.00;94182.31;5073969;28;20210;-76
2021/06/11 04:50:40;;;;;;;44.00;16.60;;;;;;;11.15;100.00;94189.38;5073913;28;20198;-78
2021/06/11 04:53:06;;;;;;;48.28;21.45;;;;;;;11.23;100.00;94189.22;5072971;28;20457;-76
2021/06/11 04:55:32;;;;;;;42.30;17.70;;;;;;;11.35;100.00;94187.66;5073811;28;20657;-76
2021/06/11 04:57:59;;;;;;;48.60;18.50;;;;;;;11.42;100.00;94187.69;5073577;28;20289;-77
2021/06/11 05:00:25;;;;;;;43.37;15.30;;;;;;;11.47;100.00;94193.94;5076021;28;20297;-78
2021/06/11 05:02:51;;;;;;;37.80;17.33;;;;;;;11.48;100.00;94187.69;5073182;28;20430;-76
2021/06/11 05:05:18;;;;;;;32.77;14.73;;;;;;;11.57;100.00;94184.91;5073610;28;20252;-77
2021/06/11 05:07:44;;;;;;;35.23;15.77;;;;;;;11.66;100.00;94188.97;5073417;28;20214;-76
2021/06/11 05:10:11;;;;;;;42.50;17.70;;;;;;;11.76;100.00;94189.41;5073343;28;20230;-76
2021/06/11 05:12:37;;;;;;;43.47;17.87;;;;;;;11.88;100.00;94191.47;5073547;28;20332;-77
2021/06/11 05:15:06;;;;;;;42.13;17.40;;;;;;;11.98;100.00;94199.75;5073272;28;20206;-77
2021/06/11 05:17:32;;;;;;;40.00;16.93;;;;;;;12.19;100.00;94193.53;5073402;28;20285;-77
2021/06/11 05:19:58;;;;;;;36.53;15.40;;;;;;;12.39;100.00;94193.56;5073342;28;20255;-77
2021/06/11 05:22:24;;;;;;;31.97;15.57;;;;;;;12.54;100.00;94182.88;5073313;28;20198;-77
2021/06/11 05:24:50;;;;;;;33.23;15.03;;;;;;;12.63;100.00;94193.97;5073042;28;20239;-76
2021/06/11 05:27:16;;;;;;;32.30;14.37;;;;;;;12.73;100.00;94196.97;5072934;28;20675;-78
2021/06/11 05:29:42;;;;;;;23.90;13.83;;;;;;;13.00;100.00;94194.31;5073211;28;20226;-75
2021/06/11 05:32:09;;;;;;;24.08;12.35;;;;;;;13.24;100.00;94195.47;5073088;28;20604;-76
2021/06/11 05:34:35;;;;;;;27.17;13.20;;;;;;;13.33;100.00;94197.69;5072582;28;20649;-76
2021/06/11 05:37:01;;;;;;;23.25;13.10;;;;;;;13.71;100.00;94200.59;5072985;28;20233;-78
2021/06/11 05:39:28;;;;;;;19.58;11.82;;;;;;;14.66;100.00;94203.22;5072914;28;20580;-77
2021/06/11 05:41:54;;;;;;;12.98;9.35;;;;;;;15.42;100.00;94201.28;5073249;28;20211;-77
2021/06/11 05:44:20;;;;;;;14.50;8.18;;;;;;;16.40;100.00;94198.63;5073089;28;20676;-77
2021/06/11 05:46:46;;;;;;;8.30;7.10;;;;;;;17.07;100.00;94195.75;5071212;28;20466;-77
2021/06/11 05:49:13;;;;;;;8.65;6.13;;;;;;;17.75;100.00;94201.34;5072805;28;20685;-77
2021/06/11 05:51:39;;;;;;;5.75;4.75;;;;;;;18.04;100.00;94207.50;5072904;28;20207;-76
2021/06/11 05:54:05;;;;;;;5.60;4.35;;;;;;;18.75;100.00;94204.50;5072856;28;20292;-76
2021/06/11 05:56:31;;;;;;;10.40;4.30;;;;;;;19.00;100.00;94200.63;5072685;28;20207;-76
2021/06/11 05:58:57;;;;;;;5.95;4.50;;;;;;;19.81;100.00;94202.81;5072954;28;20427;-77
2021/06/11 06:01:23;;;;;;;7.97;5.63;;;;;;;20.57;100.00;94204.66;5073003;28;20862;-76
2021/06/11 06:03:49;;;;;;;7.63;4.57;;;;;;;20.37;100.00;94201.78;5073283;28;20198;-76
2021/06/11 06:06:16;;;;;;;5.20;3.80;;;;;;;20.64;100.00;94197.31;5072850;28;20327;-76
2021/06/11 06:08:42;;;;;;;8.13;3.70;;;;;;;20.78;100.00;94202.19;5072680;28;20641;-76
2021/06/11 06:11:08;;;;;;;7.47;4.03;;;;;;;20.85;100.00;94200.09;5072559;28;20209;-76
2021/06/11 06:13:34;;;;;;;4.95;3.60;;;;;;;21.20;100.00;94199.56;5072865;28;20199;-76
2021/06/11 06:16:00;;;;;;;4.63;3.58;;;;;;;21.00;100.00;94194.13;5072739;28;20199;-76
2021/06/11 06:18:26;;;;;;;5.95;3.85;;;;;;;20.63;100.00;94203.69;5072671;28;20199;-77
2021/06/11 06:20:53;;;;;;;3.40;3.08;;;;;;;20.33;100.00;94197.00;5072766;28;20198;-76
2021/06/11 06:23:20;;;;;;;5.00;3.03;;;;;;;20.33;100.00;94204.97;5072259;28;20657;-77
2021/06/11 06:25:46;;;;;;;4.55;3.67;;;;;;;19.99;100.00;94195.59;5072484;28;20313;-76
2021/06/11 06:28:13;;;;;;;4.32;3.92;;;;;;;20.26;100.00;94200.91;5072702;28;20561;-76
2021/06/11 06:30:39;;;;;;;5.20;4.22;;;;;;;19.58;100.00;94199.34;5072584;28;20258;-76
2021/06/11 06:33:05;;;;;;;5.70;4.28;;;;;;;19.71;100.00;94195.50;5072593;28;20202;-76
2021/06/11 06:35:31;;;;;;;5.70;4.05;;;;;;;19.65;100.00;94200.97;5072375;28;20223;-75
2021/06/11 06:37:57;;;;;;;7.93;5.10;;;;;;;19.28;100.00;94201.56;5072329;28;20202;-77
2021/06/11 06:40:24;;;;;;;5.13;4.07;;;;;;;19.25;100.00;94202.06;5072340;28;20680;-75
2021/06/11 06:42:50;;;;;;;5.80;4.07;;;;;;;19.21;100.00;94199.09;5072497;28;20199;-76
2021/06/11 06:45:19;;;;;;;7.20;4.30;;;;;;;19.21;100.00;94205.19;5072668;28;20199;-74
2021/06/11 06:47:47;;;;;;;7.07;4.18;;;;;;;18.90;100.00;94201.31;5072339;28;20205;-76
2021/06/11 06:50:14;;;;;;;6.13;4.20;;;;;;;19.41;100.00;94202.00;5072137;28;20581;-76
2021/06/11 06:52:40;;;;;;;4.35;3.80;;;;;;;19.54;100.00;94200.88;5072202;28;20201;-76
2021/06/11 06:55:07;;;;;;;5.32;4.53;;;;;;;19.89;100.00;94196.28;5072497;28;20207;-76
2021/06/11 06:57:35;;;;;;;5.45;4.13;;;;;;;19.98;100.00;94208.03;5074054;28;20210;-76
2021/06/11 07:00:01;;;;;;;5.72;4.30;;;;;;;20.13;100.00;94200.25;5076034;28;20244;-76
2021/06/11 07:02:27;;;;;;;6.03;4.47;;;;;;;19.87;100.00;94201.81;5075877;28;20202;-76
2021/06/11 07:04:52;;;;;;;5.88;4.80;;;;;;;19.74;100.00;94197.66;5075900;28;20219;-76
2021/06/11 07:07:18;;;;;;;6.57;4.57;;;;;;;19.58;100.00;94207.28;5075766;28;20203;-76
2021/06/11 07:09:44;;;;;;;8.75;4.88;;;;;;;19.67;100.00;94197.06;5077955;28;20698;-76
2021/06/11 07:12:11;;;;;;;6.43;4.45;;;;;;;19.42;100.00;94202.84;5075905;28;20557;-76
2021/06/11 07:14:39;;;;;;;8.50;4.68;;;;;;;19.40;100.00;94199.59;5075789;28;20199;-76
2021/06/11 07:17:05;;;;;;;8.50;5.18;;;;;;;19.13;100.00;94205.59;5075660;28;20226;-76
2021/06/11 07:19:31;;;;;;;13.35;5.57;;;;;;;19.19;100.00;94203.84;5075508;28;20297;-76
2021/06/11 07:21:57;;;;;;;8.40;5.45;;;;;;;19.20;100.00;94208.91;5075435;28;20195;-76
2021/06/11 07:24:23;;;;;;;7.65;5.57;;;;;;;19.25;100.00;94208.13;5075671;28;20237;-78
2021/06/11 07:26:49;;;;;;;7.43;5.35;;;;;;;19.40;100.00;94210.19;5075759;28;20198;-78
2021/06/11 07:29:15;;;;;;;8.13;5.88;;;;;;;19.29;100.00;94208.47;5075386;28;20685;-77
2021/06/11 07:31:43;;;;;;;6.40;5.18;;;;;;;19.31;100.00;94209.81;5075405;28;20226;-78
2021/06/11 07:34:08;;;;;;;7.25;4.90;;;;;;;19.50;100.00;94209.53;5075195;28;20233;-76
2021/06/11 07:36:34;;;;;;;8.05;5.32;;;;;;;19.36;100.00;94209.09;5075201;28;20203;-78
2021/06/11 07:39:01;;;;;;;11.80;6.00;;;;;;;19.37;100.00;94213.38;5075403;28;20268;-78
2021/06/11 07:41:26;;;;;;;6.95;5.85;;;;;;;19.50;100.00;94213.00;5075475;28;20195;-78
2021/06/11 07:43:53;;;;;;;7.93;5.15;;;;;;;19.47;100.00;94210.84;5075149;28;20226;-78
2021/06/11 07:46:20;;;;;;;7.90;5.40;;;;;;;19.75;100.00;94214.38;5075196;28;20210;-78
2021/06/11 07:48:48;;;;;;;9.52;5.60;;;;;;;19.81;100.00;94210.75;5074875;28;20199;-79
2021/06/11 07:51:15;;;;;;;7.00;5.35;;;;;;;20.01;100.00;94204.09;5074836;28;20214;-79
2021/06/11 07:53:44;;;;;;;7.93;5.20;;;;;;;20.05;100.00;94208.66;5075076;28;20202;-79
2021/06/11 07:56:10;;;;;;;10.63;5.47;;;;;;;20.10;100.00;94213.19;5075135;28;20233;-78
2021/06/11 07:58:36;;;;;;;7.32;5.82;;;;;;;20.32;100.00;94211.31;5073740;28;20982;-77
2021/06/11 08:01:02;;;;;;;6.65;5.38;;;;;;;20.59;100.00;94210.50;5074976;28;20206;-80
2021/06/11 08:03:28;;;;;;;10.82;6.13;;;;;;;20.59;99.12;94210.50;5074654;28;20199;-77
2021/06/11 08:05:57;;;;;;;10.70;6.13;;;;;;;20.50;100.00;94212.00;5077524;28;20522;-81
2021/06/11 08:08:24;;;;;;;8.80;6.78;;;;;;;20.62;100.00;94210.00;5093876;28;20198;-76
2021/06/11 08:10:50;;;;;;;8.07;6.20;;;;;;;20.69;100.00;94207.16;5094683;28;20226;-77
2021/06/11 08:13:16;;;;;;;11.52;6.75;;;;;;;20.56;99.94;94207.56;5094703;28;20544;-78
2021/06/11 08:15:43;;;;;;;10.00;6.95;;;;;;;20.56;95.38;94205.69;5092573;28;20279;-78
2021/06/11 08:18:09;;;;;;;10.68;6.55;;;;;;;20.36;99.92;94211.59;5094546;28;20205;-78
2021/06/11 08:20:35;;;;;;;11.05;6.40;;;;;;;20.04;100.00;94203.59;5094876;28;20206;-78
2021/06/11 08:23:02;;;;;;;9.88;6.75;;;;;;;19.95;99.74;94209.34;5094719;28;20214;-77
2021/06/11 08:25:28;;;;;;;9.20;6.97;;;;;;;20.02;98.74;94201.19;5094527;28;20253;-78
2021/06/11 08:27:56;;;;;;;12.35;6.63;;;;;;;20.27;95.26;94213.13;5094436;28;20206;-78
2021/06/11 08:30:24;;;;;;;10.90;7.95;;;;;;;20.57;91.40;94201.19;5094311;28;20279;-78
2021/06/11 08:32:50;;;;;;;7.90;6.50;;;;;;;20.77;87.66;94211.22;5094314;28;20198;-78
2021/06/11 08:35:16;;;;;;;8.15;6.57;;;;;;;20.87;86.40;94216.59;5094216;28;20198;-77
2021/06/11 08:37:42;;;;;;;9.35;6.40;;;;;;;21.13;85.71;94209.59;5094335;28;20236;-78
2021/06/11 08:40:11;;;;;;;15.15;7.90;;;;;;;21.06;78.82;94214.34;5094107;28;20202;-78
2021/06/11 08:42:39;;;;;;;12.98;8.07;;;;;;;21.17;80.56;94204.59;5094213;28;20208;-78
2021/06/11 08:45:07;;;;;;;10.23;7.10;;;;;;;21.04;79.87;94216.47;5093964;28;20645;-79
2021/06/11 08:47:34;;;;;;;11.55;8.00;;;;;;;20.79;75.07;94217.84;5094383;28;20202;-78
2021/06/11 08:50:01;;;;;;;12.73;7.70;;;;;;;21.07;81.59;94221.25;5094102;28;20226;-79
2021/06/11 08:52:28;;;;;;;13.25;8.70;;;;;;;21.07;75.57;94216.75;5094139;28;20198;-77
2021/06/11 08:54:55;;;;;;;10.38;7.60;;;;;;;21.10;79.09;94219.94;5094065;28;20205;-79
2021/06/11 08:57:23;;;;;;;9.57;7.35;;;;;;;21.05;80.19;94224.16;5093982;28;20198;-78
2021/06/11 08:59:52;;;;;;;12.35;7.80;;;;;;;21.06;80.11;94220.44;5093796;28;20289;-78
2021/06/11 09:02:18;;;;;;;10.80;7.90;;;;;;;21.10;83.15;94222.59;5093765;28;20202;-78
2021/06/11 09:04:47;;;;;;;10.20;7.82;;;;;;;20.93;79.73;94218.22;5093985;28;20202;-78
2021/06/11 09:07:25;;;;;;;11.25;7.45;;;;;;;21.09;84.40;94219.16;5093700;28;20243;-78
2021/06/11 09:09:54;;;;;;;10.25;7.85;;;;;;;21.18;80.14;94216.81;5093547;28;20275;-78
2021/06/11 09:12:32;;;;;;;8.65;7.00;;;;;;;21.13;79.68;94219.44;5076901;28;20203;-80
2021/06/11 09:14:59;;;;;;;11.75;8.48;;;;;;;21.05;77.04;94223.38;5072987;28;20441;-78
2021/06/11 09:17:42;;;;;;;10.57;7.20;;;;;;;20.94;78.27;94219.84;5073373;28;20202;-80
2021/06/11 09:20:11;;;;;;;10.60;8.07;;;;;;;20.97;74.66;94222.00;5073552;28;20199;-81
2021/06/11 09:22:48;;;;;;;12.48;7.80;;;;;;;21.10;74.73;94220.75;5073427;28;20571;-78
2021/06/11 09:25:33;;;;;;;10.45;7.75;;;;;;;21.21;75.53;94221.63;5072957;28;20732;-79
2021/06/11 09:28:02;;;;;;;12.10;8.27;;;;;;;21.29;76.21;94226.44;5073139;28;20323;-78
2021/06/11 09:30:33;;;;;;;10.88;7.70;;;;;;;21.17;72.92;94225.84;5073023;28;20226;-78
2021/06/11 09:33:01;;;;;;;11.38;8.35;;;;;;;21.07;75.07;94222.06;5072774;28;20209;-80
2021/06/11 09:35:32;;;;;;;14.10;9.20;;;;;;;20.96;74.74;94225.69;5073003;28;20640;-78
2021/06/11 09:38:20;;;;;;;14.45;9.32;;;;;;;21.10;76.02;94222.59;5073125;28;20230;-79
2021/06/11 09:40:49;;;;;;;12.20;9.35;;;;;;;21.26;70.56;94230.41;5072694;28;20687;-80
2021/06/11 09:43:17;;;;;;;14.25;9.85;;;;;;;21.24;72.64;94221.09;5073044;28;20198;-80
2021/06/11 09:45:44;;;;;;;14.52;8.57;;;;;;;21.40;73.87;94212.19;5072860;28;20256;-79
2021/06/11 09:48:19;;;;;;;11.38;8.27;;;;;;;21.51;73.30;94222.88;5073181;28;20198;-78
2021/06/11 09:50:49;;;;;;;13.48;9.23;;;;;;;21.46;69.17;94214.88;5073472;28;20229;-79
2021/06/11 09:53:16;;;;;;;13.10;9.10;;;;;;;21.37;73.87;94209.25;5073314;28;20199;-78
2021/06/11 09:55:45;;;;;;;12.30;8.75;;;;;;;21.30;70.87;94209.47;5073154;28;20199;-79
2021/06/11 09:58:14;;;;;;;17.02;9.25;;;;;;;21.29;70.22;94202.53;5072883;28;20204;-80
2021/06/11 10:00:51;;;;;;;17.13;8.95;;;;;;;21.41;73.14;94207.66;5072985;28;20286;-78
2021/06/11 10:03:18;;;;;;;12.48;8.57;;;;;;;21.58;75.54;94205.66;5072848;28;20198;-79
2021/06/11 10:05:46;;;;;;;13.98;8.63;;;;;;;21.44;73.86;94205.28;5072686;28;20218;-78
2021/06/11 10:08:21;;;;;;;13.65;8.85;;;;;;;21.53;73.01;94202.16;5072753;28;20195;-78
2021/06/11 10:10:49;;;;;;;12.77;7.07;;;;;;;21.77;72.65;94213.19;5071493;28;20511;-76
2021/06/11 10:13:17;;;;;;;13.50;8.70;;;;;;;21.54;72.05;94207.22;5072863;28;20202;-76
2021/06/11 10:15:47;;;;;;;14.90;8.70;;;;;;;21.65;73.48;94205.44;5072738;28;20198;-76
2021/06/11 10:18:14;;;;;;;13.02;7.50;;;;;;;21.84;67.29;94205.75;5072589;28;20294;-76
2021/06/11 10:20:41;;;;;;;10.73;6.55;;;;;;;21.95;65.27;94210.06;5072081;28;20589;-78
2021/06/11 10:23:09;;;;;;;10.18;6.45;;;;;;;21.88;63.05;94203.38;5071820;28;20209;-77
2021/06/11 10:25:43;;;;;;;8.52;5.55;;;;;;;21.83;61.98;94200.72;5072001;28;20566;-76
2021/06/11 10:28:13;;;;;;;7.15;5.30;;;;;;;22.06;66.90;94200.25;5072364;28;20650;-77
2021/06/11 10:30:38;;;;;;;6.15;4.32;;;;;;;22.14;59.52;94207.72;5072480;28;20317;-77
2021/06/11 10:33:07;;;;;;;6.20;4.45;;;;;;;22.26;61.73;94207.47;5075128;28;20221;-77
2021/06/11 10:35:40;;;;;;;8.48;6.43;;;;;;;22.20;61.32;94199.75;5076452;28;20205;-75
2021/06/11 10:38:10;;;;;;;8.85;5.50;;;;;;;22.26;61.82;94206.69;5076542;28;20409;-75
2021/06/11 10:40:40;;;;;;;5.93;4.28;;;;;;;22.24;57.44;94198.19;5076665;28;20195;-78
2021/06/11 10:43:21;;;;;;;6.50;4.78;;;;;;;22.21;60.34;94204.03;5076138;28;20673;-77
2021/06/11 10:45:49;;;;;;;9.10;5.38;;;;;;;22.33;62.46;94199.28;5076401;28;20285;-77
2021/06/11 10:48:18;;;;;;;7.55;5.78;;;;;;;22.33;63.60;94201.94;5076004;28;20218;-77
2021/06/11 10:50:45;;;;;;;8.02;5.10;;;;;;;22.48;62.75;94202.00;5076172;28;20272;-78
2021/06/11 10:53:13;;;;;;;7.55;5.05;;;;;;;22.39;58.85;94194.78;5076172;28;20595;-76
2021/06/11 10:55:51;;;;;;;4.72;3.90;;;;;;;22.20;56.18;94195.25;5076196;28;20200;-77
2021/06/11 10:58:25;;;;;;;6.45;4.05;;;;;;;22.29;58.05;94190.25;5076160;28;20191;-76
2021/06/11 11:00:51;;;;;;;6.15;3.85;;;;;;;22.33;55.96;94189.47;5076058;28;20198;-76
2021/06/11 11:03:33;;;;;;;5.82;3.80;;;;;;;22.37;54.02;94186.28;5076170;28;20201;-75
2021/06/11 11:06:27;;;;;;;7.25;4.38;;;;;;;22.51;58.66;94179.34;5076035;28;20203;-77
2021/06/11 11:08:55;;;;;;;5.57;3.80;;;;;;;22.76;59.52;94180.44;5075928;28;20559;-78
2021/06/11 11:11:32;;;;;;;5.32;4.25;;;;;;;22.78;61.36;94184.41;5076013;28;20325;-77
2021/06/11 11:13:59;;;;;;;5.40;4.03;;;;;;;22.66;56.74;94182.00;5075967;28;20243;-77
2021/06/11 11:16:26;;;;;;;6.80;5.35;;;;;;;22.40;59.94;94188.38;5075697;28;20217;-77
2021/06/11 11:18:54;;;;;;;6.22;4.65;;;;;;;22.53;56.13;94171.91;5078214;28;20195;-77
2021/06/11 11:21:26;;;;;;;6.80;5.18;;;;;;;22.88;58.31;94172.97;5075596;28;20333;-76
2021/06/11 11:23:53;;;;;;;5.65;4.18;;;;;;;22.74;55.71;94178.03;5075199;28;20804;-77